Time;durP1;ratioP1;P1;durP2;ratioP2;P2;SDS_P1;SDS_P2;PMS_P1;PMS_P2;Temp;Humidity;BMP_temperature;BMP_pressure;BME280_temperature;BME280_humidity;BME280_pressure;Samples;Min_cycle;Max_cycle;Signal;HPM_P1;HPM_P2
2022/07/24 00:01:04;;;;;;;3.05;2.75;;;13.20;99.90;;;;;;4987555;28;20030;-68
2022/07/24 00:03:31;;;;;;;4.43;2.72;;;13.30;99.90;;;;;;4988142;28;20038;-76
2022/07/24 00:05:58;;;;;;;3.60;2.53;;;13.50;99.90;;;;;;4986794;28;20598;-67
2022/07/24 00:08:25;;;;;;;2.90;2.30;;;13.70;99.90;;;;;;4991338;28;20030;-68
2022/07/24 00:10:53;;;;;;;4.18;2.95;;;13.70;99.90;;;;;;4984028;28;20026;-67
2022/07/24 00:13:20;;;;;;;2.90;2.25;;;13.80;99.90;;;;;;4986149;28;20053;-67
2022/07/24 00:15:47;;;;;;;4.68;2.65;;;13.90;99.90;;;;;;4984266;28;20023;-71
2022/07/24 00:18:14;;;;;;;3.85;3.00;;;14.00;99.90;;;;;;4987000;28;20173;-69
2022/07/24 00:20:41;;;;;;;2.83;2.55;;;14.10;99.90;;;;;;4989522;28;20133;-66
2022/07/24 00:23:08;;;;;;;4.57;2.40;;;14.30;99.90;;;;;;4987143;28;20087;-68
2022/07/24 00:25:35;;;;;;;2.08;1.40;;;14.60;99.90;;;;;;4989593;28;20747;-71
2022/07/24 00:28:02;;;;;;;3.38;2.03;;;14.70;99.90;;;;;;4988455;28;20081;-68
2022/07/24 00:30:30;;;;;;;2.05;1.70;;;14.80;99.90;;;;;;4987778;28;20036;-72
2022/07/24 00:32:57;;;;;;;3.78;2.47;;;14.90;99.90;;;;;;4989475;28;20030;-67
2022/07/24 00:35:24;;;;;;;3.53;1.95;;;15.00;99.90;;;;;;4987871;28;20133;-72
2022/07/24 00:37:51;;;;;;;4.20;1.98;;;15.20;99.90;;;;;;4988611;28;20023;-68
2022/07/24 00:40:18;;;;;;;5.45;1.80;;;15.20;99.90;;;;;;4986580;28;20066;-68
2022/07/24 00:42:45;;;;;;;2.10;1.90;;;15.40;99.90;;;;;;4987123;28;20030;-70
2022/07/24 00:45:13;;;;;;;2.83;1.80;;;15.60;99.90;;;;;;4983215;28;20038;-69
2022/07/24 00:47:40;;;;;;;2.85;2.13;;;15.60;99.90;;;;;;4988982;28;20250;-67
2022/07/24 00:50:07;;;;;;;2.85;1.90;;;15.70;99.90;;;;;;4988845;28;20041;-67
2022/07/24 00:52:35;;;;;;;2.13;1.90;;;15.80;99.90;;;;;;4985957;28;20137;-73
2022/07/24 00:55:04;;;;;;;2.60;1.58;;;15.80;99.90;;;;;;4987660;28;20479;-73
2022/07/24 00:57:31;;;;;;;3.65;1.33;;;15.70;99.90;;;;;;4986767;28;20022;-69
2022/07/24 00:59:58;;;;;;;2.25;1.67;;;15.80;99.90;;;;;;4985146;28;20026;-71
2022/07/24 01:02:26;;;;;;;2.42;1.63;;;15.90;99.90;;;;;;4987491;28;20518;-68
2022/07/24 01:04:54;;;;;;;2.00;1.30;;;16.00;99.90;;;;;;4987939;28;20037;-75
2022/07/24 01:07:22;;;;;;;1.50;1.25;;;16.10;99.90;;;;;;4990448;28;20533;-67
2022/07/24 01:09:50;;;;;;;1.23;0.98;;;16.20;99.90;;;;;;4988492;28;20026;-67
2022/07/24 01:12:18;;;;;;;1.35;1.00;;;16.30;99.90;;;;;;4990819;28;20031;-70
2022/07/24 01:14:46;;;;;;;1.23;0.98;;;16.40;99.90;;;;;;4986707;28;20029;-67
2022/07/24 01:17:13;;;;;;;1.63;1.05;;;16.60;99.90;;;;;;4985339;28;20164;-75
2022/07/24 01:19:40;;;;;;;1.52;1.05;;;16.80;99.90;;;;;;4987162;28;20084;-68
2022/07/24 01:22:07;;;;;;;3.35;1.10;;;16.90;99.90;;;;;;4986720;28;20430;-72
2022/07/24 01:24:34;;;;;;;1.05;0.77;;;17.00;99.90;;;;;;4987272;28;20192;-71
2022/07/24 01:27:01;;;;;;;3.67;0.93;;;17.00;99.90;;;;;;4984588;28;20026;-71
2022/07/24 01:29:28;;;;;;;1.58;0.95;;;17.00;99.90;;;;;;4986748;28;20038;-72
2022/07/24 01:31:55;;;;;;;3.33;0.73;;;17.20;99.90;;;;;;4987920;28;20030;-72
2022/07/24 01:34:23;;;;;;;1.15;0.80;;;17.30;99.90;;;;;;4986141;28;20034;-71
2022/07/24 01:36:50;;;;;;;2.80;0.65;;;17.50;99.90;;;;;;4987505;28;20072;-67
2022/07/24 01:39:17;;;;;;;1.63;0.88;;;17.60;99.90;;;;;;4988079;28;20414;-72
2022/07/24 01:41:44;;;;;;;1.45;0.80;;;17.80;99.90;;;;;;4989110;28;20555;-71
2022/07/24 01:44:11;;;;;;;1.27;0.68;;;18.00;99.90;;;;;;4983433;28;20483;-69
2022/07/24 01:46:38;;;;;;;1.65;0.88;;;18.20;99.90;;;;;;4987325;28;20045;-72
2022/07/24 01:49:07;;;;;;;4.07;1.10;;;18.20;99.90;;;;;;4987521;28;20041;-70
2022/07/24 01:51:34;;;;;;;5.05;1.40;;;18.40;99.90;;;;;;4987901;28;20050;-74
2022/07/24 01:54:02;;;;;;;1.45;0.80;;;18.30;99.90;;;;;;4986514;28;20038;-71
2022/07/24 01:56:30;;;;;;;2.50;0.85;;;18.50;99.90;;;;;;4987846;28;20026;-70
2022/07/24 01:58:58;;;;;;;1.98;0.85;;;18.70;99.90;;;;;;4987793;28;20057;-74
2022/07/24 02:01:26;;;;;;;0.90;0.60;;;18.80;99.90;;;;;;4989050;28;20049;-70
2022/07/24 02:03:53;;;;;;;1.00;0.75;;;18.90;99.90;;;;;;4987361;28;20534;-71
2022/07/24 02:06:20;;;;;;;1.38;0.70;;;18.90;99.90;;;;;;4986185;28;20521;-70
2022/07/24 02:08:48;;;;;;;1.95;0.70;;;19.10;99.90;;;;;;4985395;28;20070;-71
2022/07/24 02:11:15;;;;;;;1.38;0.68;;;19.30;99.90;;;;;;4986831;28;20059;-77
2022/07/24 02:13:42;;;;;;;0.80;0.30;;;19.40;99.90;;;;;;4980875;28;20061;-75
2022/07/24 02:16:10;;;;;;;2.25;0.90;;;19.30;99.90;;;;;;4986064;28;20062;-69
2022/07/24 02:18:37;;;;;;;2.47;0.45;;;18.90;99.90;;;;;;4984169;28;20084;-71
2022/07/24 02:21:04;;;;;;;1.50;1.05;;;18.90;99.90;;;;;;4985141;28;20026;-74
2022/07/24 02:23:31;;;;;;;1.33;0.40;;;18.70;99.90;;;;;;4982715;28;20031;-69
2022/07/24 02:25:58;;;;;;;0.45;0.40;;;18.80;99.90;;;;;;4986950;28;20038;-69
2022/07/24 02:28:25;;;;;;;2.65;0.47;;;18.70;99.90;;;;;;4986482;28;20026;-71
2022/07/24 02:30:54;;;;;;;1.40;0.55;;;18.40;99.90;;;;;;5019317;28;20061;-69
2022/07/24 02:33:21;;;;;;;1.50;0.30;;;18.20;99.90;;;;;;4988320;28;20034;-68
2022/07/24 02:35:48;;;;;;;1.23;0.28;;;18.30;99.90;;;;;;4988546;28;20034;-71
2022/07/24 02:38:15;;;;;;;1.98;0.50;;;18.50;99.90;;;;;;4988312;28;20493;-70
2022/07/24 02:40:42;;;;;;;0.40;0.30;;;18.80;99.90;;;;;;4989981;28;20022;-72
2022/07/24 02:43:09;;;;;;;2.65;0.40;;;19.10;99.90;;;;;;4990423;28;20383;-72
2022/07/24 02:45:37;;;;;;;2.30;0.43;;;19.40;99.90;;;;;;4995430;28;20390;-72
2022/07/24 02:48:04;;;;;;;1.50;0.63;;;19.40;99.90;;;;;;4990690;28;20368;-68
2022/07/24 02:50:35;;;;;;;2.40;0.40;;;19.50;99.90;;;;;;4991422;28;20033;-77
2022/07/24 02:53:02;;;;;;;5.03;3.42;;;19.60;99.90;;;;;;4989755;28;20079;-72
2022/07/24 02:55:29;;;;;;;1.55;0.80;;;19.60;99.90;;;;;;4989968;28;20568;-72
2022/07/24 02:57:57;;;;;;;2.05;0.43;;;19.60;99.90;;;;;;4991221;28;20034;-69
2022/07/24 03:00:24;;;;;;;1.55;0.65;;;19.70;99.90;;;;;;4993422;28;20035;-74
2022/07/24 03:02:52;;;;;;;1.35;0.50;;;19.90;99.90;;;;;;4991964;28;20027;-70
2022/07/24 03:05:19;;;;;;;1.83;0.50;;;20.20;99.90;;;;;;4988248;28;20065;-69
2022/07/24 03:07:47;;;;;;;2.38;1.33;;;20.50;99.90;;;;;;4988140;28;20030;-71
2022/07/24 03:10:15;;;;;;;1.50;0.38;;;20.50;99.90;;;;;;4987037;28;20026;-74
2022/07/24 03:12:43;;;;;;;1.33;1.05;;;20.70;99.90;;;;;;4989149;28;20073;-72
2022/07/24 03:15:11;;;;;;;0.80;0.40;;;20.70;99.90;;;;;;4990573;28;20447;-70
2022/07/24 03:17:39;;;;;;;3.40;0.70;;;20.80;99.90;;;;;;4991724;28;20025;-70
2022/07/24 03:20:07;;;;;;;2.08;0.55;;;20.90;99.90;;;;;;4991854;28;20037;-68
2022/07/24 03:22:34;;;;;;;2.53;0.65;;;21.00;99.90;;;;;;4990336;28;20372;-69
2022/07/24 03:25:01;;;;;;;1.20;0.40;;;21.20;99.90;;;;;;4993383;28;20075;-69
2022/07/24 03:27:28;;;;;;;1.83;1.27;;;21.30;99.90;;;;;;4992378;28;20034;-75
2022/07/24 03:29:55;;;;;;;2.00;0.55;;;21.40;99.90;;;;;;5022769;28;20376;-70
2022/07/24 03:32:23;;;;;;;3.85;1.30;;;21.50;99.90;;;;;;4990219;28;20135;-68
2022/07/24 03:34:50;;;;;;;1.85;1.55;;;21.50;99.90;;;;;;4992346;28;20037;-77
2022/07/24 03:37:17;;;;;;;1.77;0.68;;;21.60;99.90;;;;;;4990741;28;20458;-71
2022/07/24 03:39:44;;;;;;;2.40;1.13;;;21.50;99.90;;;;;;4995143;28;20026;-70
2022/07/24 03:42:11;;;;;;;0.90;0.70;;;20.90;99.90;;;;;;4991918;28;20026;-71
2022/07/24 03:44:39;;;;;;;2.47;1.08;;;20.80;99.90;;;;;;4992105;28;20026;-73
2022/07/24 03:47:06;;;;;;;1.83;0.95;;;20.70;99.90;;;;;;4995160;28;20055;-70
2022/07/24 03:49:33;;;;;;;1.92;0.50;;;20.30;99.90;;;;;;4993696;28;20031;-68
2022/07/24 03:52:01;;;;;;;0.68;0.47;;;20.30;99.90;;;;;;4992616;28;20022;-72
2022/07/24 03:54:28;;;;;;;5.75;1.88;;;20.40;99.90;;;;;;4992696;28;20435;-71
2022/07/24 03:56:55;;;;;;;2.80;1.70;;;20.70;99.90;;;;;;4991852;28;20134;-71
2022/07/24 03:59:22;;;;;;;9.40;6.75;;;21.00;99.90;;;;;;4991715;28;20054;-73
2022/07/24 04:01:49;;;;;;;3.30;1.02;;;21.20;99.90;;;;;;4995936;28;20105;-73
2022/07/24 04:04:16;;;;;;;4.30;1.20;;;21.30;99.90;;;;;;4986923;28;20053;-71
2022/07/24 04:06:44;;;;;;;3.53;1.52;;;21.40;99.80;;;;;;4986467;28;20030;-75
2022/07/24 04:09:11;;;;;;;5.93;2.30;;;21.40;99.40;;;;;;4987127;28;20030;-72
2022/07/24 04:11:38;;;;;;;4.53;2.15;;;21.40;98.40;;;;;;4989131;28;20475;-71
2022/07/24 04:14:05;;;;;;;10.02;3.30;;;21.40;97.60;;;;;;4987164;28;20517;-71
2022/07/24 04:16:33;;;;;;;1.58;0.93;;;21.30;97.10;;;;;;4988298;28;20022;-74
2022/07/24 04:19:00;;;;;;;1.13;0.63;;;21.20;97.40;;;;;;4986325;28;20049;-75
2022/07/24 04:21:27;;;;;;;8.73;2.97;;;21.20;97.10;;;;;;4988407;28;20494;-73
2022/07/24 04:23:54;;;;;;;2.58;1.48;;;21.20;98.80;;;;;;4988622;28;20069;-71
2022/07/24 04:26:21;;;;;;;4.40;1.65;;;21.20;97.90;;;;;;4988786;28;20031;-71
2022/07/24 04:28:49;;;;;;;3.72;1.55;;;21.20;98.70;;;;;;4987649;28;20038;-77
2022/07/24 04:31:16;;;;;;;7.88;2.00;;;21.20;99.30;;;;;;4987049;28;20037;-71
2022/07/24 04:33:43;;;;;;;4.25;1.48;;;21.20;99.90;;;;;;4989378;28;20069;-72
2022/07/24 04:36:10;;;;;;;6.05;2.25;;;21.30;98.90;;;;;;4987406;28;20046;-75
2022/07/24 04:38:37;;;;;;;3.83;1.70;;;21.30;98.20;;;;;;4991620;28;20084;-74
2022/07/24 04:41:05;;;;;;;4.07;1.98;;;21.20;98.20;;;;;;4989797;28;20026;-78
2022/07/24 04:43:32;;;;;;;6.72;4.30;;;21.20;98.20;;;;;;4987585;28;20053;-71
2022/07/24 04:46:00;;;;;;;5.13;1.67;;;21.30;98.50;;;;;;4988555;28;20030;-72
2022/07/24 04:48:27;;;;;;;6.63;2.38;;;21.30;98.10;;;;;;4987895;28;20479;-72
2022/07/24 04:50:54;;;;;;;4.88;2.35;;;21.40;98.70;;;;;;4987890;28;20034;-70
2022/07/24 04:53:23;;;;;;;4.32;2.38;;;21.50;97.00;;;;;;5039747;23;20081;-72
2022/07/24 04:55:53;;;;;;;2.70;1.40;;;21.60;97.00;;;;;;4408267;28;10001853;-71
2022/07/24 04:58:20;;;;;;;4.78;1.77;;;21.60;97.00;;;;;;5002803;28;20030;-72
2022/07/24 05:00:47;;;;;;;3.28;1.70;;;21.50;97.10;;;;;;5003348;28;20018;-72
2022/07/24 05:03:14;;;;;;;3.17;1.35;;;21.40;96.40;;;;;;5003826;28;20429;-69
2022/07/24 05:05:41;;;;;;;2.67;1.13;;;21.10;96.80;;;;;;5001425;28;20026;-71
2022/07/24 05:08:10;;;;;;;4.30;1.52;;;21.00;97.90;;;;;;5000700;28;20036;-69
2022/07/24 05:10:38;;;;;;;2.70;1.27;;;21.10;97.70;;;;;;5001216;28;20022;-71
2022/07/24 05:13:05;;;;;;;4.60;1.40;;;20.90;97.70;;;;;;5000542;28;20057;-70
2022/07/24 05:15:32;;;;;;;4.47;2.58;;;21.00;97.90;;;;;;5001932;28;20053;-72
2022/07/24 05:17:59;;;;;;;3.88;2.50;;;21.10;97.00;;;;;;5002090;28;20116;-72
2022/07/24 05:20:27;;;;;;;5.78;3.20;;;21.10;96.50;;;;;;4998440;28;20025;-70
2022/07/24 05:22:54;;;;;;;2.13;1.25;;;21.20;97.00;;;;;;5000138;28;20060;-72
2022/07/24 05:25:21;;;;;;;1.63;1.17;;;21.40;96.30;;;;;;5001479;28;20305;-72
2022/07/24 05:27:48;;;;;;;1.58;1.05;;;21.50;96.20;;;;;;5000418;28;20109;-69
2022/07/24 05:30:15;;;;;;;1.95;1.02;;;21.80;96.00;;;;;;5000351;28;20053;-70
2022/07/24 05:32:42;;;;;;;2.53;1.10;;;21.80;95.90;;;;;;5000041;28;20053;-69
2022/07/24 05:35:09;;;;;;;1.95;1.10;;;21.70;96.20;;;;;;4999936;28;20084;-67
2022/07/24 05:37:37;;;;;;;2.33;1.10;;;21.70;96.10;;;;;;5000021;28;20105;-69
2022/07/24 05:40:05;;;;;;;2.28;1.30;;;22.00;95.20;;;;;;5001465;28;20762;-68
2022/07/24 05:42:32;;;;;;;2.63;1.23;;;22.00;95.40;;;;;;5000991;28;20026;-69
2022/07/24 05:44:59;;;;;;;1.40;0.93;;;22.00;95.60;;;;;;5000369;28;20107;-69
2022/07/24 05:47:26;;;;;;;2.53;1.00;;;22.10;94.60;;;;;;4999854;28;20026;-66
2022/07/24 05:49:53;;;;;;;2.80;0.90;;;22.00;94.50;;;;;;5000847;28;20041;-64
2022/07/24 05:52:21;;;;;;;2.60;1.20;;;21.90;94.90;;;;;;4998132;28;20512;-68
2022/07/24 05:54:48;;;;;;;3.00;1.25;;;21.80;95.10;;;;;;4999291;28;20036;-67
2022/07/24 05:57:15;;;;;;;3.10;1.35;;;21.70;94.90;;;;;;4650913;28;9999586;-67
2022/07/24 05:59:42;;;;;;;3.85;1.30;;;21.70;94.60;;;;;;4994574;28;20139;-65
2022/07/24 06:02:09;;;;;;;3.60;1.30;;;21.30;95.10;;;;;;4996691;28;20036;-65
2022/07/24 06:04:41;;;;;;;2.80;1.48;;;20.70;95.50;;;;;;4994279;28;20018;-67
2022/07/24 06:07:10;;;;;;;2.88;1.67;;;20.20;96.50;;;;;;4983496;28;20041;-65
2022/07/24 06:09:37;;;;;;;3.22;1.30;;;19.70;97.00;;;;;;4992588;28;20029;-71
2022/07/24 06:12:05;;;;;;;1.10;0.80;;;19.40;97.80;;;;;;4998915;28;20437;-70
2022/07/24 06:14:33;;;;;;;2.92;0.95;;;19.10;97.30;;;;;;4996466;28;20521;-70
2022/07/24 06:17:00;;;;;;;1.52;0.80;;;18.90;98.00;;;;;;4998456;28;20025;-68
2022/07/24 06:19:27;;;;;;;2.33;0.80;;;18.80;98.50;;;;;;4995393;28;20130;-66
2022/07/24 06:21:54;;;;;;;1.75;0.80;;;18.70;99.90;;;;;;4997244;28;20526;-69
2022/07/24 06:24:22;;;;;;;1.33;0.82;;;18.60;99.70;;;;;;4996316;28;20025;-65
2022/07/24 06:26:52;;;;;;;3.33;1.00;;;18.50;99.50;;;;;;4995870;28;20054;-66
2022/07/24 06:29:19;;;;;;;1.58;0.80;;;18.40;99.10;;;;;;4996749;28;20044;-69
2022/07/24 06:31:46;;;;;;;3.33;1.13;;;18.30;99.90;;;;;;4996854;28;20406;-66
2022/07/24 06:34:13;;;;;;;2.25;0.93;;;18.20;99.90;;;;;;4998771;28;20029;-66
2022/07/24 06:36:40;;;;;;;1.45;0.73;;;18.20;99.90;;;;;;4998472;28;20488;-69
2022/07/24 06:39:08;;;;;;;1.42;0.90;;;18.10;99.90;;;;;;4998636;28;20018;-69
2022/07/24 06:41:35;;;;;;;3.45;1.75;;;17.90;99.90;;;;;;4997556;28;20507;-69
2022/07/24 06:44:02;;;;;;;5.55;2.60;;;17.70;99.90;;;;;;4997461;28;20029;-68
2022/07/24 06:46:29;;;;;;;3.80;1.40;;;17.60;99.90;;;;;;4998469;28;20452;-71
2022/07/24 06:48:56;;;;;;;1.92;1.20;;;17.80;99.90;;;;;;4999081;28;20088;-71
2022/07/24 06:51:23;;;;;;;1.80;1.17;;;18.10;99.90;;;;;;4995220;28;20223;-70
2022/07/24 06:53:51;;;;;;;3.85;2.13;;;18.30;99.90;;;;;;4998453;28;20513;-66
2022/07/24 06:56:18;;;;;;;5.70;2.40;;;18.40;99.90;;;;;;4998037;28;20032;-69
2022/07/24 06:58:46;;;;;;;5.43;3.28;;;18.40;99.90;;;;;;4996945;28;20033;-71
2022/07/24 07:01:13;;;;;;;6.30;2.92;;;18.00;99.90;;;;;;4998570;28;20126;-72
2022/07/24 07:03:40;;;;;;;6.03;3.40;;;17.50;99.90;;;;;;4998390;28;20521;-73
2022/07/24 07:06:07;;;;;;;6.88;3.42;;;17.10;99.90;;;;;;5000070;28;20021;-73
2022/07/24 07:08:34;;;;;;;7.28;3.38;;;16.80;99.90;;;;;;4998174;28;20030;-69
2022/07/24 07:11:02;;;;;;;6.72;4.15;;;16.50;99.90;;;;;;4990211;28;20413;-68
2022/07/24 07:13:29;;;;;;;7.35;3.65;;;16.30;99.90;;;;;;4995432;28;20423;-69
2022/07/24 07:15:56;;;;;;;10.10;6.28;;;16.00;99.90;;;;;;4996450;28;20136;-69
2022/07/24 07:18:23;;;;;;;5.28;3.15;;;15.70;99.90;;;;;;4997668;28;20020;-69
2022/07/24 07:20:53;;;;;;;6.32;3.65;;;15.60;99.90;;;;;;4998669;28;20022;-72
2022/07/24 07:23:27;;;;;;;5.10;3.35;;;15.40;99.90;;;;;;4996542;28;20418;-72
2022/07/24 07:25:55;;;;;;;4.80;3.40;;;15.30;99.90;;;;;;4999126;28;20040;-68
2022/07/24 07:28:22;;;;;;;4.97;3.42;;;15.00;99.90;;;;;;4997251;28;20084;-69
2022/07/24 07:30:49;;;;;;;4.53;3.15;;;14.80;99.90;;;;;;5000370;28;20038;-69
2022/07/24 07:33:17;;;;;;;12.20;7.70;;;14.70;99.90;;;;;;4998673;28;20033;-71
2022/07/24 07:35:44;;;;;;;7.60;4.80;;;14.60;99.90;;;;;;5000158;28;20116;-68
2022/07/24 07:38:11;;;;;;;6.32;3.45;;;14.60;99.90;;;;;;4997812;28;20068;-71
2022/07/24 07:40:38;;;;;;;8.10;4.80;;;14.40;99.90;;;;;;4999509;28;20433;-67
2022/07/24 07:43:05;;;;;;;4.53;2.67;;;14.30;99.90;;;;;;4998879;28;20347;-69
2022/07/24 07:45:33;;;;;;;5.85;2.95;;;14.20;99.90;;;;;;4999021;28;20131;-68
2022/07/24 07:48:00;;;;;;;5.72;3.35;;;14.10;99.90;;;;;;5000205;28;20116;-69
2022/07/24 07:50:27;;;;;;;4.47;3.08;;;14.00;99.90;;;;;;5000832;28;20064;-68
2022/07/24 07:52:54;;;;;;;9.77;4.55;;;13.90;99.90;;;;;;5002151;28;20053;-69
2022/07/24 07:55:21;;;;;;;7.82;5.50;;;13.80;99.90;;;;;;5001795;28;20792;-71
2022/07/24 07:57:49;;;;;;;7.40;5.35;;;13.70;99.90;;;;;;4999620;28;20652;-70
2022/07/24 08:00:19;;;;;;;4.72;3.30;;;13.60;99.90;;;;;;5002147;28;20116;-68
2022/07/24 08:02:46;;;;;;;4.68;3.50;;;13.50;99.90;;;;;;5002650;28;20375;-64
2022/07/24 08:05:14;;;;;;;6.40;2.75;;;13.40;99.90;;;;;;5001942;28;20037;-66
2022/07/24 08:07:41;;;;;;;6.13;3.10;;;13.40;99.90;;;;;;4999455;28;20112;-65
2022/07/24 08:10:08;;;;;;;8.07;4.38;;;13.40;99.90;;;;;;5001678;28;20070;-64
2022/07/24 08:12:35;;;;;;;8.90;8.00;;;13.30;99.90;;;;;;5001539;28;20030;-70
2022/07/24 08:15:03;;;;;;;18.55;14.45;;;13.40;99.90;;;;;;5001200;28;20135;-66
2022/07/24 08:17:30;;;;;;;9.68;4.57;;;13.40;99.90;;;;;;5001083;28;20021;-68
2022/07/24 08:19:57;;;;;;;4.97;3.58;;;13.30;99.90;;;;;;4998285;28;20113;-68
2022/07/24 08:22:24;;;;;;;5.97;3.33;;;13.40;99.90;;;;;;5001973;28;20125;-69
2022/07/24 08:24:51;;;;;;;8.18;3.75;;;13.10;99.90;;;;;;4998436;28;20056;-68
2022/07/24 08:27:18;;;;;;;4.20;2.90;;;12.90;99.90;;;;;;4997009;28;20029;-67
2022/07/24 08:29:46;;;;;;;6.38;2.85;;;12.80;99.90;;;;;;4998735;28;20026;-66
2022/07/24 08:32:13;;;;;;;4.95;2.20;;;12.80;99.90;;;;;;4998632;28;20039;-67
2022/07/24 08:34:40;;;;;;;3.95;1.75;;;12.80;99.90;;;;;;5001098;28;20038;-67
2022/07/24 08:37:13;;;;;;;3.22;1.65;;;12.80;99.90;;;;;;5000567;28;20538;-65
2022/07/24 08:39:40;;;;;;;4.47;2.05;;;12.80;99.90;;;;;;4997609;28;20018;-72
2022/07/24 08:42:08;;;;;;;3.72;1.90;;;12.80;99.90;;;;;;4996801;28;20141;-69
2022/07/24 08:44:38;;;;;;;4.45;2.25;;;12.70;99.90;;;;;;4996892;28;20695;-66
2022/07/24 08:47:10;;;;;;;4.65;2.40;;;12.80;99.90;;;;;;4998484;28;20492;-67
2022/07/24 08:49:37;;;;;;;3.47;2.08;;;12.70;99.90;;;;;;4997138;28;20129;-68
2022/07/24 08:52:08;;;;;;;4.30;2.08;;;12.60;99.90;;;;;;4996549;28;20140;-69
2022/07/24 08:54:36;;;;;;;4.32;2.15;;;12.60;99.90;;;;;;4992513;28;20367;-68
2022/07/24 08:57:04;;;;;;;4.22;2.17;;;12.60;99.90;;;;;;4997242;28;20077;-70
2022/07/24 08:59:32;;;;;;;4.68;2.22;;;12.60;99.90;;;;;;4999623;28;20021;-70
2022/07/24 09:02:00;;;;;;;4.70;2.15;;;12.50;99.90;;;;;;4997524;28;20036;-69
2022/07/24 09:04:41;;;;;;;5.00;2.40;;;12.50;99.90;;;;;;4997745;28;20022;-69
2022/07/24 09:07:10;;;;;;;3.92;2.13;;;12.40;99.90;;;;;;4998215;28;20030;-71
2022/07/24 09:09:39;;;;;;;7.03;2.58;;;12.30;99.90;;;;;;4996850;28;20478;-68
2022/07/24 09:12:17;;;;;;;6.93;2.53;;;12.30;99.90;;;;;;4996549;28;20129;-68
2022/07/24 09:14:47;;;;;;;5.07;2.28;;;12.30;99.90;;;;;;4997564;28;20083;-65
2022/07/24 09:17:19;;;;;;;5.00;2.60;;;12.20;99.90;;;;;;4997944;28;20021;-68
2022/07/24 09:19:52;;;;;;;4.82;2.42;;;12.20;99.90;;;;;;4995054;28;20033;-68
2022/07/24 09:22:40;;;;;;;4.28;2.78;;;12.20;99.90;;;;;;4998482;28;20037;-69
2022/07/24 09:25:16;;;;;;;9.13;2.92;;;12.20;99.90;;;;;;4998078;28;20522;-67
2022/07/24 09:27:49;;;;;;;6.28;3.00;;;12.10;99.90;;;;;;4997446;28;20037;-69
2022/07/24 09:30:26;;;;;;;4.38;2.63;;;12.10;99.90;;;;;;4999274;28;20030;-71
2022/07/24 09:32:54;;;;;;;5.07;2.60;;;12.10;99.90;;;;;;4997889;28;20034;-69
2022/07/24 09:35:31;;;;;;;6.10;2.47;;;12.10;99.90;;;;;;4998012;28;20775;-72
2022/07/24 09:37:59;;;;;;;4.95;2.67;;;12.10;99.90;;;;;;4996489;28;20034;-68
2022/07/24 09:40:32;;;;;;;4.82;2.92;;;12.10;99.90;;;;;;4995590;28;20145;-69
2022/07/24 09:43:19;;;;;;;4.97;3.15;;;12.10;99.90;;;;;;5010393;28;20259;-68
2022/07/24 09:45:58;;;;;;;5.82;4.63;;;12.00;99.90;;;;;;4995903;28;20044;-69
2022/07/24 09:48:32;;;;;;;5.88;3.30;;;12.10;99.90;;;;;;4996255;28;20026;-69
2022/07/24 09:51:02;;;;;;;6.80;3.53;;;12.10;99.90;;;;;;4996833;28;20030;-69
2022/07/24 09:53:31;;;;;;;11.57;3.10;;;12.00;99.90;;;;;;4993384;28;20578;-69
2022/07/24 09:56:00;;;;;;;8.93;3.58;;;12.00;99.90;;;;;;4994387;28;20034;-69
2022/07/24 09:58:27;;;;;;;9.35;3.65;;;12.00;99.90;;;;;;4993762;28;20072;-71
2022/07/24 10:00:56;;;;;;;8.02;3.50;;;12.00;99.90;;;;;;4998009;28;20029;-69
2022/07/24 10:03:28;;;;;;;9.98;3.75;;;11.90;99.90;;;;;;4996114;28;20123;-69
2022/07/24 10:05:59;;;;;;;10.80;4.00;;;11.90;99.90;;;;;;4996869;28;20033;-69
2022/07/24 10:08:27;;;;;;;7.50;3.20;;;11.80;99.90;;;;;;4995946;28;20045;-68
2022/07/24 10:10:55;;;;;;;7.57;3.33;;;11.80;99.90;;;;;;4997184;28;20229;-70
2022/07/24 10:13:24;;;;;;;4.95;3.63;;;11.80;99.90;;;;;;4997982;28;20033;-68
2022/07/24 10:16:13;;;;;;;7.95;3.88;;;11.70;99.90;;;;;;4997713;28;20144;-68
2022/07/24 10:19:06;;;;;;;8.43;3.80;;;11.60;99.90;;;;;;4994857;28;20105;-70
2022/07/24 10:21:37;;;;;;;7.20;4.25;;;11.60;99.90;;;;;;4997410;28;20026;-66
2022/07/24 10:24:05;;;;;;;7.32;4.18;;;11.60;99.90;;;;;;4996843;28;20112;-67
2022/07/24 10:26:42;;;;;;;7.82;4.03;;;11.60;99.90;;;;;;4997555;28;20022;-68
2022/07/24 10:29:12;;;;;;;9.10;4.10;;;11.50;99.90;;;;;;4994822;28;20034;-70
2022/07/24 10:31:44;;;;;;;6.38;3.45;;;11.40;99.90;;;;;;4996266;28;20089;-67
2022/07/24 10:34:57;;;;;;;6.45;4.28;;;11.30;99.90;;;;;;4998053;28;20048;-65
2022/07/24 10:37:42;;;;;;;6.93;4.57;;;11.20;99.90;;;;;;4994292;28;20049;-73
2022/07/24 10:40:28;;;;;;;9.43;4.93;;;11.10;99.90;;;;;;4997551;28;20065;-69
2022/07/24 10:43:10;;;;;;;7.72;4.82;;;10.90;99.90;;;;;;4993475;28;20557;-68
2022/07/24 10:45:48;;;;;;;10.65;5.30;;;10.70;99.90;;;;;;5003051;28;20479;-69
2022/07/24 10:48:21;;;;;;;7.45;5.50;;;10.70;99.90;;;;;;4999953;28;20014;-69
2022/07/24 10:51:09;;;;;;;12.82;6.00;;;10.60;99.90;;;;;;4998426;28;20114;-69
2022/07/24 10:53:39;;;;;;;7.70;4.88;;;10.60;99.90;;;;;;5003376;28;20050;-69
2022/07/24 10:56:18;;;;;;;9.27;5.72;;;10.50;99.90;;;;;;5003075;28;20034;-71
2022/07/24 10:58:52;;;;;;;10.75;6.47;;;10.70;99.90;;;;;;5004469;28;20577;-69
2022/07/24 11:01:44;;;;;;;10.45;6.75;;;10.80;99.90;;;;;;5003568;28;20037;-68
2022/07/24 11:04:22;;;;;;;11.23;8.00;;;10.70;99.90;;;;;;5003799;28;20072;-68
2022/07/24 11:07:12;;;;;;;13.48;6.22;;;10.60;99.90;;;;;;4998219;28;20063;-69
2022/07/24 11:09:56;;;;;;;9.80;6.43;;;10.60;99.90;;;;;;4995573;28;20412;-71
2022/07/24 11:12:42;;;;;;;10.15;6.70;;;10.50;99.90;;;;;;5001750;28;20497;-69
2022/07/24 11:17:54;;;;;;;8.77;6.00;;;10.60;99.90;;;;;;5003068;28;20029;-67
2022/07/24 11:20:22;;;;;;;11.68;6.95;;;10.60;99.90;;;;;;5002495;28;20029;-66
2022/07/24 11:22:52;;;;;;;11.05;6.55;;;10.60;99.90;;;;;;4999630;28;20050;-69
2022/07/24 11:25:21;;;;;;;13.75;7.40;;;10.50;99.90;;;;;;5004964;28;20096;-70
2022/07/24 11:27:58;;;;;;;11.40;7.53;;;10.50;99.90;;;;;;5002601;28;20069;-66
2022/07/24 11:30:27;;;;;;;10.52;7.05;;;10.40;99.90;;;;;;5000734;28;20038;-65
2022/07/24 11:32:54;;;;;;;9.80;6.95;;;10.50;99.90;;;;;;5006125;28;20049;-66
2022/07/24 11:35:29;;;;;;;7.82;6.38;;;10.60;99.90;;;;;;5008418;28;20010;-66
2022/07/24 11:37:58;;;;;;;11.55;7.80;;;10.60;99.90;;;;;;5006853;28;20365;-66
2022/07/24 11:40:26;;;;;;;11.77;7.97;;;10.50;99.90;;;;;;5007321;28;20072;-67
2022/07/24 11:42:58;;;;;;;10.40;7.85;;;10.40;99.90;;;;;;5007304;28;20022;-65
2022/07/24 11:45:25;;;;;;;13.85;7.97;;;10.40;99.90;;;;;;5003960;28;20065;-70
2022/07/24 11:47:55;;;;;;;10.80;7.88;;;10.30;99.90;;;;;;5013600;28;20083;-69
2022/07/24 11:50:26;;;;;;;8.65;7.10;;;10.20;99.90;;;;;;4999581;28;20526;-68
2022/07/24 11:52:54;;;;;;;14.13;8.47;;;10.30;99.90;;;;;;5014011;28;20099;-67
2022/07/24 11:55:26;;;;;;;17.00;9.40;;;10.20;99.90;;;;;;5007488;28;20117;-69
2022/07/24 11:57:56;;;;;;;11.75;9.98;;;10.10;99.90;;;;;;4310590;28;10000563;-69
2022/07/24 12:00:29;;;;;;;15.67;9.37;;;10.00;99.90;;;;;;5012451;28;20473;-70
2022/07/24 12:02:58;;;;;;;13.02;9.20;;;10.10;99.90;;;;;;4997200;28;20064;-70
2022/07/24 12:05:33;;;;;;;14.93;9.38;;;10.10;99.90;;;;;;5005801;28;20588;-68
2022/07/24 12:08:03;;;;;;;11.60;8.50;;;10.30;99.90;;;;;;5002922;28;20110;-70
2022/07/24 12:10:31;;;;;;;13.57;8.75;;;10.30;99.90;;;;;;5004876;28;20037;-67
2022/07/24 12:12:58;;;;;;;14.77;9.20;;;10.40;99.90;;;;;;5003842;28;20745;-69
2022/07/24 12:15:27;;;;;;;12.68;8.75;;;10.40;99.90;;;;;;5013839;28;20103;-70
2022/07/24 12:18:07;;;;;;;12.10;7.90;;;10.30;99.90;;;;;;4999634;28;20018;-68
2022/07/24 12:20:40;;;;;;;12.77;7.95;;;10.30;99.90;;;;;;5004640;28;20040;-71
2022/07/24 12:23:09;;;;;;;14.32;8.05;;;10.40;99.90;;;;;;5006261;28;20018;-68
2022/07/24 12:25:37;;;;;;;9.98;6.65;;;10.30;99.90;;;;;;5009444;28;20038;-71
2022/07/24 12:28:09;;;;;;;11.60;7.05;;;10.30;99.90;;;;;;5010337;28;20044;-68
2022/07/24 12:30:38;;;;;;;10.52;7.68;;;10.30;99.90;;;;;;5006109;28;20103;-72
2022/07/24 12:33:19;;;;;;;12.15;8.88;;;10.30;99.90;;;;;;5011593;28;20025;-68
2022/07/24 12:36:11;;;;;;;12.07;8.65;;;10.40;99.90;;;;;;5003836;28;20036;-69
2022/07/24 12:38:50;;;;;;;11.70;7.40;;;10.40;99.90;;;;;;5005049;28;20612;-71
2022/07/24 12:41:21;;;;;;;13.07;7.88;;;10.40;99.90;;;;;;5004965;28;20260;-68
2022/07/24 12:43:58;;;;;;;13.77;7.32;;;10.30;99.90;;;;;;5008225;28;20631;-71
2022/07/24 12:46:34;;;;;;;11.80;7.25;;;10.30;99.90;;;;;;5012416;28;20030;-68
2022/07/24 12:49:18;;;;;;;11.73;7.13;;;10.20;99.90;;;;;;5008525;28;20057;-71
2022/07/24 12:51:56;;;;;;;11.07;7.32;;;10.10;99.90;;;;;;5006348;28;20481;-69
2022/07/24 12:54:46;;;;;;;11.07;6.85;;;10.00;99.90;;;;;;5007450;28;20042;-70
2022/07/24 12:57:15;;;;;;;11.27;6.53;;;9.90;99.90;;;;;;5007566;28;20058;-68
2022/07/24 12:59:44;;;;;;;12.45;7.70;;;9.80;99.90;;;;;;5007854;28;20100;-71